Long Island, Maine
Current Conditions -  °F | °C
As of 6:51 PM on Wednesday 26 Nov 2014 (Local Time) from KPWM Reporting Station
Heavy Snow Heavy Snow  
Wind Chill: 25°   Ceiling: 400
Heat Index: 34°   Visibility: 0.25mi
Dew Point: 32°   Wind: 13mph
Humidity: 92%   Direction: 30°NNE
Pressure: 29.95"   Gusts: NA
Location:  43.68°N, 70.17°W
Report Text: KPWM 262351Z 03011KT 1/4SM +SN FG OVC004 01/00 A2995 RMK AO2 SLP142 P0013 60070 T00110000 10011 20011 56053
Loading
Personal Weather Stations






























Interactive Weather Map New forecast layout! Learn more

10-Day Weather Forecast

Advertisements
Track Severe Weather on mobile